Aviation Digital Data Service (ADDS)

Output produced by METARs form (1511 UTC 30 September 2016)
found at http://www.aviationweather.gov/adds/metars/
 
KCMI 301145Z 3012/0112 02009KT P6SM VCSH OVC010 
     FM301700 02011KT P6SM VCSH SCT006 OVC015 
     FM010000 01008KT 5SM -RA BR BKN006 OVC012 
     FM010600 35008KT 5SM BR VCSH OVC004